Time;durP1;ratioP1;P1;durP2;ratioP2;P2;SDS_P1;SDS_P2;PMS_P1;PMS_P2;Temp;Humidity;BMP_temperature;BMP_pressure;BME280_temperature;BME280_humidity;BME280_pressure;Samples;Min_cycle;Max_cycle;Signal;HPM_P1;HPM_P2
2021/03/15 00:00:56;;;;;;;;;;;;;;;18.30;60.28;101816.38;5108783;28;1303;-66
2021/03/15 00:03:24;;;;;;;;;;;;;;;18.30;60.41;101813.75;5109087;28;1938;-65
2021/03/15 00:05:57;;;;;;;;;;;;;;;18.28;60.54;101812.91;5108324;28;1520;-65
2021/03/15 00:08:23;;;;;;;;;;;;;;;18.37;62.01;101809.94;5090800;28;1056;-65
2021/03/15 00:10:50;;;;;;;;;;;;;;;18.30;60.70;101808.47;5090400;28;1188;-66
2021/03/15 00:13:18;;;;;;;;;;;;;;;18.26;60.35;101802.44;5071553;28;1451;-66
2021/03/15 00:15:51;;;;;;;;;;;;;;;18.22;60.80;101792.06;5072042;28;1374;-66
2021/03/15 00:18:18;;;;;;;;;;;;;;;18.20;60.73;101796.53;5090429;28;1134;-66
2021/03/15 00:20:45;;;;;;;;;;;;;;;18.18;60.97;101793.09;5072516;28;1318;-67
2021/03/15 00:23:11;;;;;;;;;;;;;;;18.17;61.18;101801.94;5090251;28;1985;-67
2021/03/15 00:25:38;;;;;;;;;;;;;;;18.15;61.08;101793.22;5071925;28;1434;-67
2021/03/15 00:28:04;;;;;;;;;;;;;;;18.14;61.24;101797.63;5072476;28;1231;-67
2021/03/15 00:30:31;;;;;;;;;;;;;;;18.14;61.24;101794.13;5090420;28;1287;-67
2021/03/15 00:32:57;;;;;;;;;;;;;;;18.10;61.42;101801.28;5090336;28;866;-67
2021/03/15 00:35:24;;;;;;;;;;;;;;;18.10;61.61;101803.06;5090552;28;1298;-66
2021/03/15 00:37:50;;;;;;;;;;;;;;;18.09;61.53;101796.94;5090155;28;793;-67
2021/03/15 00:40:21;;;;;;;;;;;;;;;18.08;61.87;101789.09;5090495;28;1155;-66
2021/03/15 00:42:49;;;;;;;;;;;;;;;18.06;61.76;101794.41;5089843;28;1967;-67
2021/03/15 00:45:18;;;;;;;;;;;;;;;18.05;61.93;101795.34;5071515;28;1054;-66
2021/03/15 00:47:44;;;;;;;;;;;;;;;18.05;61.92;101794.47;5090094;28;848;-66
2021/03/15 00:50:28;;;;;;;;;;;;;;;18.03;61.88;101795.38;5089439;28;1340;-67
2021/03/15 00:52:54;;;;;;;;;;;;;;;18.03;61.84;101797.16;5072006;28;1048;-67
2021/03/15 00:55:21;;;;;;;;;;;;;;;18.02;62.06;101792.81;5090155;28;1311;-66
2021/03/15 00:57:47;;;;;;;;;;;;;;;18.02;61.96;101798.09;5090050;28;995;-67
2021/03/15 01:00:15;;;;;;;;;;;;;;;18.00;62.15;101798.13;5089940;28;1213;-67
2021/03/15 01:02:41;;;;;;;;;;;;;;;17.99;62.16;101793.78;5089141;28;1979;-67
2021/03/15 01:05:08;;;;;;;;;;;;;;;17.97;61.98;101790.34;5089239;28;1036;-68
2021/03/15 01:07:35;;;;;;;;;;;;;;;17.99;62.14;101782.41;5089027;28;1325;-67
2021/03/15 01:10:01;;;;;;;;;;;;;;;17.98;62.14;101778.88;5089860;28;1037;-67
2021/03/15 01:12:27;;;;;;;;;;;;;;;17.97;62.15;101784.19;5089716;28;1224;-67
2021/03/15 01:14:53;;;;;;;;;;;;;;;17.96;62.29;101777.25;5071473;28;1057;-67
2021/03/15 01:17:21;;;;;;;;;;;;;;;17.95;62.07;101770.22;5089294;28;1161;-67
2021/03/15 01:19:47;;;;;;;;;;;;;;;17.94;62.21;101769.38;5089291;28;1022;-67
2021/03/15 01:22:13;;;;;;;;;;;;;;;17.94;62.09;101774.63;5070898;28;1983;-66
2021/03/15 01:24:40;;;;;;;;;;;;;;;17.92;62.29;101768.56;5089165;28;882;-66
2021/03/15 01:27:06;;;;;;;;;;;;;;;17.92;62.24;101765.06;5089369;28;1327;-66
2021/03/15 01:29:32;;;;;;;;;;;;;;;17.91;62.33;101761.56;5089585;28;1046;-66
2021/03/15 01:32:02;;;;;;;;;;;;;;;17.91;62.11;101758.06;5089574;28;1227;-67
2021/03/15 01:34:29;;;;;;;;;;;;;;;17.90;62.06;101756.38;5089577;28;959;-67
2021/03/15 01:37:03;;;;;;;;;;;;;;;17.88;61.92;101748.50;5070914;28;1634;-66
2021/03/15 01:39:31;;;;;;;;;;;;;;;17.89;61.93;101750.25;5071080;28;1684;-66
2021/03/15 01:41:58;;;;;;;;;;;;;;;17.88;61.74;101752.91;5070761;28;1989;-67
2021/03/15 01:44:25;;;;;;;;;;;;;;;17.88;61.72;101748.50;5071288;28;1108;-67
2021/03/15 01:46:51;;;;;;;;;;;;;;;17.87;61.54;101748.59;5089568;28;1286;-67
2021/03/15 01:49:17;;;;;;;;;;;;;;;17.87;61.44;101757.31;5089315;28;1371;-67
2021/03/15 01:51:44;;;;;;;;;;;;;;;17.86;61.35;101753.00;5070878;28;1264;-67
2021/03/15 01:54:13;;;;;;;;;;;;;;;17.85;61.29;101753.91;5089409;28;958;-66
2021/03/15 01:56:39;;;;;;;;;;;;;;;17.84;61.13;101753.97;5070773;28;1232;-67
2021/03/15 01:59:05;;;;;;;;;;;;;;;17.84;61.15;101754.81;5089120;28;1139;-67
2021/03/15 02:01:34;;;;;;;;;;;;;;;17.82;61.15;101742.59;5091277;28;1232;-67
2021/03/15 02:04:00;;;;;;;;;;;;;;;17.82;60.96;101740.84;5092886;28;1918;-68
2021/03/15 02:06:26;;;;;;;;;;;;;;;17.81;60.99;101739.09;5074649;28;1351;-68
2021/03/15 02:08:53;;;;;;;;;;;;;;;17.81;60.91;101736.47;5092967;28;1054;-67
2021/03/15 02:11:44;;;;;;;;;;;;;;;17.80;60.59;101742.69;5092887;28;1244;-68
2021/03/15 02:14:19;;;;;;;;;;;;;;;17.79;60.47;101727.78;5093078;28;1083;-68
2021/03/15 02:16:54;;;;;;;;;;;;;;;17.77;60.38;101731.38;5092012;28;1252;-67
2021/03/15 02:19:39;;;;;;;;;;;;;;;17.77;60.44;101729.63;5092586;28;1098;-67
2021/03/15 02:22:05;;;;;;;;;;;;;;;17.76;60.45;101725.25;5092401;28;1910;-68
2021/03/15 02:24:50;;;;;;;;;;;;;;;17.76;60.50;101714.72;5074340;28;1106;-68
2021/03/15 02:27:41;;;;;;;;;;;;;;;17.77;60.45;101715.56;5092511;28;1332;-67
2021/03/15 02:30:20;;;;;;;;;;;;;;;17.77;60.38;101712.94;5074243;28;1387;-67
2021/03/15 02:32:55;;;;;;;;;;;;;;;17.75;60.27;101709.50;5092435;28;1277;-68
2021/03/15 02:35:23;;;;;;;;;;;;;;;17.75;60.22;101704.25;5092674;28;1369;-67
2021/03/15 02:37:55;;;;;;;;;;;;;;;17.74;60.14;101703.38;5092789;28;1075;-67
2021/03/15 02:40:42;;;;;;;;;;;;;;;17.72;60.11;101704.34;5092658;28;1296;-67
2021/03/15 02:43:09;;;;;;;;;;;;;;;17.73;60.12;101695.50;5091869;28;1978;-66
2021/03/15 02:45:37;;;;;;;;;;;;;;;17.71;60.15;101697.34;5092444;28;1227;-66
2021/03/15 02:48:06;;;;;;;;;;;;;;;17.71;60.15;101685.03;5092048;28;805;-66
2021/03/15 02:50:34;;;;;;;;;;;;;;;17.69;60.13;101678.13;5091968;28;1721;-68
2021/03/15 02:53:03;;;;;;;;;;;;;;;17.69;60.26;101683.38;5092104;28;877;-68
2021/03/15 02:55:31;;;;;;;;;;;;;;;17.66;59.96;101671.16;5092405;28;1278;-67
2021/03/15 02:57:59;;;;;;;;;;;;;;;17.69;59.94;101680.75;5091887;28;742;-67
2021/03/15 03:00:27;;;;;;;;;;;;;;;17.68;59.78;101682.53;5092034;28;1355;-66
2021/03/15 03:02:54;;;;;;;;;;;;;;;17.67;59.93;101669.41;5091664;28;1906;-66
2021/03/15 03:05:22;;;;;;;;;;;;;;;17.66;59.86;101673.81;5092183;28;1342;-66
2021/03/15 03:07:55;;;;;;;;;;;;;;;17.66;59.77;101673.81;5092174;28;840;-67
2021/03/15 03:10:24;;;;;;;;;;;;;;;17.64;59.75;101673.00;5092118;28;1328;-67
2021/03/15 03:12:51;;;;;;;;;;;;;;;17.63;59.83;101660.75;5091098;28;1354;-67
2021/03/15 03:15:20;;;;;;;;;;;;;;;17.62;59.80;101651.16;5092111;28;1294;-67
2021/03/15 03:17:47;;;;;;;;;;;;;;;17.63;59.64;101658.09;5072564;28;1241;-67
2021/03/15 03:20:17;;;;;;;;;;;;;;;17.62;59.62;101661.69;5091922;28;895;-67
2021/03/15 03:22:45;;;;;;;;;;;;;;;17.61;59.43;101667.84;5091651;28;1969;-67
2021/03/15 03:25:16;;;;;;;;;;;;;;;17.59;59.55;101661.78;5092209;28;929;-67
2021/03/15 03:27:45;;;;;;;;;;;;;;;17.59;59.54;101656.53;5073227;28;1444;-67
2021/03/15 03:30:13;;;;;;;;;;;;;;;17.59;59.47;101661.78;5091906;28;925;-67
2021/03/15 03:32:41;;;;;;;;;;;;;;;17.61;59.49;101664.34;5073165;28;1343;-67
2021/03/15 03:35:07;;;;;;;;;;;;;;;17.58;59.37;101659.19;5091909;28;1205;-67
2021/03/15 03:37:34;;;;;;;;;;;;;;;17.56;59.07;101667.19;5091301;28;1330;-66
2021/03/15 03:40:01;;;;;;;;;;;;;;;17.55;59.33;101660.19;5091889;28;1146;-67
2021/03/15 03:42:28;;;;;;;;;;;;;;;17.57;59.01;101662.78;5072805;28;1989;-67
2021/03/15 03:44:54;;;;;;;;;;;;;;;17.55;59.11;101665.44;5073169;28;1470;-67
2021/03/15 03:47:20;;;;;;;;;;;;;;;17.54;58.87;101663.69;5091152;28;1219;-67
2021/03/15 03:49:47;;;;;;;;;;;;;;;17.56;58.95;101666.31;5090972;28;1491;-67
2021/03/15 03:52:14;;;;;;;;;;;;;;;17.54;59.04;101670.75;5090832;28;1316;-67
2021/03/15 03:54:48;;;;;;;;;;;;;;;17.54;59.20;101660.22;5073052;28;973;-67
2021/03/15 03:57:23;;;;;;;;;;;;;;;17.53;58.94;101658.50;5091017;28;1169;-67
2021/03/15 03:59:50;;;;;;;;;;;;;;;17.52;58.92;101659.41;5091048;28;1066;-67
2021/03/15 04:02:19;;;;;;;;;;;;;;;17.52;58.95;101660.25;5091072;28;1902;-66
2021/03/15 04:04:47;;;;;;;;;;;;;;;17.50;59.01;101659.47;5090397;28;1063;-67
2021/03/15 04:07:18;;;;;;;;;;;;;;;17.49;58.99;101657.75;5090583;28;1321;-67
2021/03/15 04:09:46;;;;;;;;;;;;;;;17.47;59.09;101657.81;5090834;28;1193;-66
2021/03/15 04:12:15;;;;;;;;;;;;;;;17.47;58.87;101662.22;5090308;28;1269;-66
2021/03/15 04:14:48;;;;;;;;;;;;;;;17.47;58.63;101662.22;5090748;28;1163;-67
2021/03/15 04:17:19;;;;;;;;;;;;;;;17.49;58.75;101657.75;5090414;28;1284;-67
2021/03/15 04:19:50;;;;;;;;;;;;;;;17.49;58.49;101657.75;5090838;28;1056;-67
2021/03/15 04:22:18;;;;;;;;;;;;;;;17.46;58.52;101660.50;5090173;28;1982;-67
2021/03/15 04:24:45;;;;;;;;;;;;;;;17.46;58.32;101660.50;5088841;28;1065;-67
2021/03/15 04:27:11;;;;;;;;;;;;;;;17.47;58.28;101662.22;5090636;28;1327;-67
2021/03/15 04:29:38;;;;;;;;;;;;;;;17.45;58.30;101661.41;5090628;28;1123;-67
2021/03/15 04:32:06;;;;;;;;;;;;;;;17.44;58.40;101660.56;5090920;28;1246;-65
2021/03/15 04:34:34;;;;;;;;;;;;;;;17.45;58.35;101664.03;5090606;28;1123;-67
2021/03/15 04:37:01;;;;;;;;;;;;;;;17.43;58.44;101665.88;5089899;28;1240;-68
2021/03/15 04:39:29;;;;;;;;;;;;;;;17.42;58.28;101657.09;5090554;28;1173;-68
2021/03/15 04:41:56;;;;;;;;;;;;;;;17.43;58.37;101665.88;5090215;28;1310;-68
2021/03/15 04:44:24;;;;;;;;;;;;;;;17.42;58.22;101658.88;5090249;28;1968;-65
2021/03/15 04:46:51;;;;;;;;;;;;;;;17.43;58.15;101660.59;5071775;28;1275;-66
2021/03/15 04:49:18;;;;;;;;;;;;;;;17.42;58.37;101664.16;5090043;28;1542;-66
2021/03/15 04:51:44;;;;;;;;;;;;;;;17.40;58.17;101639.66;5089836;28;1319;-66
2021/03/15 04:54:11;;;;;;;;;;;;;;;17.39;58.44;101644.06;5089975;28;1004;-66
2021/03/15 04:56:38;;;;;;;;;;;;;;;17.42;58.36;101643.06;5089729;28;1294;-66
2021/03/15 04:59:04;;;;;;;;;;;;;;;17.41;58.21;101646.66;5089372;28;1074;-66
2021/03/15 05:01:32;;;;;;;;;;;;;;;17.37;58.52;101642.41;5089323;28;1217;-66
2021/03/15 05:03:59;;;;;;;;;;;;;;;17.37;58.26;101637.13;5089541;28;1906;-66
2021/03/15 05:06:27;;;;;;;;;;;;;;;17.39;58.47;101632.66;5089673;28;1228;-67
2021/03/15 05:08:55;;;;;;;;;;;;;;;17.35;58.17;101641.59;5089683;28;925;-67
2021/03/15 05:11:24;;;;;;;;;;;;;;;17.36;58.45;101638.03;5089634;28;1334;-67
2021/03/15 05:13:51;;;;;;;;;;;;;;;17.35;58.22;101639.84;5089582;28;1053;-67
2021/03/15 05:16:17;;;;;;;;;;;;;;;17.33;58.44;101631.13;5089290;28;1327;-66
2021/03/15 05:18:44;;;;;;;;;;;;;;;17.34;58.35;101632.84;5089294;28;1023;-67
2021/03/15 05:21:10;;;;;;;;;;;;;;;17.32;58.37;101628.56;5088798;28;1299;-66
2021/03/15 05:23:37;;;;;;;;;;;;;;;17.34;58.36;101632.84;5070152;28;1993;-67
2021/03/15 05:26:04;;;;;;;;;;;;;;;17.33;58.24;101628.47;5071451;28;1216;-67
2021/03/15 05:28:31;;;;;;;;;;;;;;;17.34;58.30;101631.97;5089326;28;931;-67
2021/03/15 05:31:02;;;;;;;;;;;;;;;17.35;58.39;101638.97;5089145;28;1243;-67
2021/03/15 05:33:30;;;;;;;;;;;;;;;17.32;58.13;101633.81;5089399;28;1045;-67
2021/03/15 05:35:57;;;;;;;;;;;;;;;17.34;58.22;101629.34;5070418;28;1252;-67
2021/03/15 05:38:23;;;;;;;;;;;;;;;17.31;58.41;101648.75;5070826;28;1209;-67
2021/03/15 05:40:51;;;;;;;;;;;;;;;17.30;58.38;101644.41;5089093;28;1216;-67
2021/03/15 05:43:28;;;;;;;;;;;;;;;17.34;58.46;101650.41;5088974;28;1961;-67
2021/03/15 05:46:06;;;;;;;;;;;;;;;17.38;58.88;101652.03;5088996;28;1180;-67
2021/03/15 05:48:41;;;;;;;;;;;;;;;17.35;58.47;101660.03;5088626;28;1611;-67
2021/03/15 05:51:35;;;;;;;;;;;;;;;17.30;58.64;101656.69;5088785;28;1263;-67
2021/03/15 05:54:01;;;;;;;;;;;;;;;17.31;58.36;101655.78;5089122;28;1002;-67
2021/03/15 05:56:28;;;;;;;;;;;;;;;17.30;58.58;101654.06;5088595;28;1323;-67
2021/03/15 05:59:05;;;;;;;;;;;;;;;17.29;58.60;101658.50;5088736;28;1133;-67
2021/03/15 06:01:50;;;;;;;;;;;;;;;17.30;58.69;101654.94;5088656;28;1260;-67
2021/03/15 06:04:46;;;;;;;;;;;;;;;17.29;58.74;101662.91;5088749;28;1979;-67
2021/03/15 06:07:13;;;;;;;;;;;;;;;17.27;58.70;101664.72;5071491;28;1212;-67
2021/03/15 06:09:49;;;;;;;;;;;;;;;17.27;58.78;101662.94;5089070;28;1227;-67
2021/03/15 06:12:38;;;;;;;;;;;;;;;17.28;58.61;101656.78;5088090;28;1259;-67
2021/03/15 06:15:05;;;;;;;;;;;;;;;17.25;58.93;101663.91;5050537;28;1135;-67
2021/03/15 06:17:32;;;;;;;;;;;;;;;17.25;58.70;101661.28;5088897;28;1212;-67
2021/03/15 06:19:59;;;;;;;;;;;;;;;17.25;58.75;101664.78;5070168;28;1360;-67
2021/03/15 06:22:26;;;;;;;;;;;;;;;17.25;58.88;101666.56;5053801;28;1926;-67
2021/03/15 06:24:53;;;;;;;;;;;;;;;17.25;58.74;101661.28;5088936;28;960;-68
2021/03/15 06:27:19;;;;;;;;;;;;;;;17.25;58.86;101669.19;5070526;28;1383;-67
2021/03/15 06:29:45;;;;;;;;;;;;;;;17.23;58.68;101661.34;5070776;28;1197;-68
2021/03/15 06:32:12;;;;;;;;;;;;;;;17.27;58.51;101662.06;5088844;28;1240;-68
2021/03/15 06:34:40;;;;;;;;;;;;;;;17.23;58.51;101665.75;5070280;28;1257;-67
2021/03/15 06:37:06;;;;;;;;;;;;;;;17.23;58.64;101661.34;5088517;28;1316;-67
2021/03/15 06:39:36;;;;;;;;;;;;;;;17.24;58.53;101665.69;5088625;28;1136;-67
2021/03/15 06:42:05;;;;;;;;;;;;;;;17.28;58.68;101666.44;5088507;28;1285;-67
2021/03/15 06:44:32;;;;;;;;;;;;;;;17.33;58.57;101659.22;5088021;28;1905;-66
2021/03/15 06:46:58;;;;;;;;;;;;;;;17.27;58.40;101660.31;5089740;28;1326;-66
2021/03/15 06:49:24;;;;;;;;;;;;;;;17.24;58.35;101670.94;5091945;28;1386;-66
2021/03/15 06:52:02;;;;;;;;;;;;;;;17.25;58.61;101666.56;5091715;28;1319;-66
2021/03/15 06:54:28;;;;;;;;;;;;;;;17.24;58.52;101662.19;5091564;28;1065;-65
2021/03/15 06:57:13;;;;;;;;;;;;;;;17.24;58.52;101659.56;5073452;28;1481;-67
2021/03/15 06:59:50;;;;;;;;;;;;;;;17.27;58.79;101654.19;5073718;28;1836;-67
2021/03/15 07:02:27;;;;;;;;;;;;;;;17.43;60.93;101655.34;5091898;28;1269;-65
2021/03/15 07:04:55;;;;;;;;;;;;;;;17.39;60.55;101653.72;5092057;28;1047;-64
2021/03/15 07:07:22;;;;;;;;;;;;;;;17.37;61.23;101652.94;5091794;28;1325;-69
2021/03/15 07:09:54;;;;;;;;;;;;;;;17.25;61.22;101650.75;5091798;28;1036;-66
2021/03/15 07:12:22;;;;;;;;;;;;;;;17.24;61.29;101660.41;5073062;28;1308;-66
2021/03/15 07:14:49;;;;;;;;;;;;;;;17.24;61.37;101664.81;5091850;28;1061;-67
2021/03/15 07:17:26;;;;;;;;;;;;;;;17.22;61.13;101657.00;5092173;28;1212;-66
2021/03/15 07:19:53;;;;;;;;;;;;;;;17.25;61.38;101666.56;5091671;28;911;-67
2021/03/15 07:22:21;;;;;;;;;;;;;;;17.24;61.31;101672.72;5073212;28;1505;-67
2021/03/15 07:25:01;;;;;;;;;;;;;;;17.43;61.90;101676.41;5091352;28;2020;-63
2021/03/15 07:27:27;;;;;;;;;;;;;;;17.35;60.72;101694.28;5072915;28;1503;-64
2021/03/15 07:29:54;;;;;;;;;;;;;;;17.44;61.14;101688.69;5091317;28;1046;-63
2021/03/15 07:32:37;;;;;;;;;;;;;;;17.36;60.77;101690.72;5091494;28;1222;-64
2021/03/15 07:35:20;;;;;;;;;;;;;;;17.28;60.62;101700.69;5106387;28;1145;-63
2021/03/15 07:37:47;;;;;;;;;;;;;;;17.30;60.44;101693.56;5094120;28;923;-63
2021/03/15 07:40:26;;;;;;;;;;;;;;;17.29;60.90;101698.00;5111407;28;1349;-64
2021/03/15 07:42:56;;;;;;;;;;;;;;;17.28;61.21;101703.31;5111197;27;1967;-64
2021/03/15 07:45:43;;;;;;;;;;;;;;;17.26;61.26;101692.84;5114295;27;1299;-64
2021/03/15 07:48:09;;;;;;;;;;;;;;;17.40;60.18;101697.59;5095658;27;1250;-63
2021/03/15 07:50:36;;;;;;;;;;;;;;;17.46;60.99;101702.63;5131465;27;1769;-67
2021/03/15 07:53:03;;;;;;;;;;;;;;;17.33;60.64;101699.59;5131019;27;1011;-68
2021/03/15 07:55:33;;;;;;;;;;;;;;;17.33;60.91;101702.22;5110840;27;1792;-67
2021/03/15 07:57:59;;;;;;;;;;;;;;;17.36;60.67;101702.09;5109261;28;1212;-67
2021/03/15 08:00:26;;;;;;;;;;;;;;;17.41;60.18;101696.69;5074390;28;1410;-67
2021/03/15 08:02:56;;;;;;;;;;;;;;;17.46;59.97;101686.84;5091825;28;1997;-67
2021/03/15 08:05:39;;;;;;;;;;;;;;;17.53;59.87;101683.06;5109753;28;1247;-67
2021/03/15 08:08:06;;;;;;;;;;;;;;;17.57;59.40;101684.69;5112045;27;994;-67
2021/03/15 08:10:32;;;;;;;;;;;;;;;17.60;59.52;101681.94;5128726;27;1345;-66
2021/03/15 08:13:00;;;;;;;;;;;;;;;17.62;58.45;101688.03;5108668;28;1153;-67
2021/03/15 08:15:26;;;;;;;;;;;;;;;17.63;58.36;101691.53;5109438;28;1287;-67
2021/03/15 08:17:52;;;;;;;;;;;;;;;17.63;58.24;101684.47;5109940;27;1162;-68
2021/03/15 08:20:19;;;;;;;;;;;;;;;17.65;58.41;101687.91;5128910;27;1220;-67
2021/03/15 08:22:48;;;;;;;;;;;;;;;17.66;58.29;101684.34;5111397;27;1913;-67
2021/03/15 08:25:15;;;;;;;;;;;;;;;17.66;58.11;101676.44;5128143;27;1110;-68
2021/03/15 08:27:42;;;;;;;;;;;;;;;17.72;60.52;101684.09;5109031;28;1327;-67
2021/03/15 08:30:15;;;;;;;;;;;;;;;17.75;59.29;101686.63;5090209;28;1111;-64
2021/03/15 08:32:42;;;;;;;;;;;;;;;17.76;59.27;101680.44;5108601;28;1232;-65
2021/03/15 08:35:12;;;;;;;;;;;;;;;17.72;58.05;101686.75;5109978;27;1272;-65
2021/03/15 08:37:51;;;;;;;;;;;;;;;17.72;57.78;101689.38;5128940;27;1302;-64
2021/03/15 08:40:36;;;;;;;;;;;;;;;17.73;57.40;101680.56;5129165;27;1186;-65
2021/03/15 08:43:29;;;;;;;;;;;;;;;17.74;57.41;101684.06;5128291;27;1917;-66
2021/03/15 08:45:57;;;;;;;;;;;;;;;17.76;57.99;101674.31;5106673;27;1335;-65
2021/03/15 08:48:33;;;;;;;;;;;;;;;17.76;57.43;101672.53;5128761;27;1432;-64
2021/03/15 08:51:06;;;;;;;;;;;;;;;17.75;56.78;101667.34;5130002;27;1264;-65
2021/03/15 08:53:38;;;;;;;;;;;;;;;17.74;56.97;101666.47;5130301;27;1144;-65
2021/03/15 08:56:10;;;;;;;;;;;;;;;17.74;56.41;101669.13;5130267;27;1228;-64
2021/03/15 08:58:41;;;;;;;;;;;;;;;17.73;56.71;101663.88;5130048;27;1127;-65
2021/03/15 09:01:09;;;;;;;;;;;;;;;17.81;60.00;101667.13;5129776;27;1328;-65
2021/03/15 09:03:55;;;;;;;;;;;;;;;17.79;57.65;101669.78;5111423;27;1905;-65
2021/03/15 09:06:37;;;;;;;;;;;;;;;17.79;57.91;101685.59;5130260;27;1313;-65
2021/03/15 09:09:11;;;;;;;;;;;;;;;17.79;57.28;101680.34;5129847;27;1042;-66
2021/03/15 09:11:37;;;;;;;;;;;;;;;17.80;57.08;101678.56;5130081;27;1247;-66
2021/03/15 09:14:13;;;;;;;;;;;;;;;17.79;56.32;101675.06;5129735;27;1192;-64
2021/03/15 09:16:59;;;;;;;;;;;;;;;17.81;55.99;101682.94;5130143;27;1236;-66
2021/03/15 09:19:26;;;;;;;;;;;;;;;17.80;55.26;101686.47;5129793;27;1151;-65
2021/03/15 09:21:55;;;;;;;;;;;;;;;17.81;55.33;101681.13;5129484;27;1236;-65
2021/03/15 09:24:37;;;;;;;;;;;;;;;17.82;56.26;101674.94;5129838;27;1905;-65
2021/03/15 09:27:07;;;;;;;;;;;;;;;17.82;57.40;101679.34;5130019;27;1342;-66
2021/03/15 09:29:36;;;;;;;;;;;;;;;17.82;56.76;101680.22;5130307;27;944;-65
2021/03/15 09:32:05;;;;;;;;;;;;;;;17.84;56.54;101677.53;5129604;27;1187;-65
2021/03/15 09:34:32;;;;;;;;;;;;;;;17.95;60.47;101678.84;5128750;27;1003;-65
2021/03/15 09:36:59;;;;;;;;;;;;;;;17.93;58.92;101683.28;5106312;28;1295;-64
2021/03/15 09:39:28;;;;;;;;;;;;;;;18.00;59.90;101686.53;5108781;28;1148;-64
2021/03/15 09:41:54;;;;;;;;;;;;;;;17.99;57.33;101680.41;5129348;27;1330;-65
2021/03/15 09:44:21;;;;;;;;;;;;;;;17.94;56.48;101673.59;5129801;27;1910;-65
2021/03/15 09:46:51;;;;;;;;;;;;;;;17.92;56.43;101670.19;5129433;27;1402;-65
2021/03/15 09:49:37;;;;;;;;;;;;;;;17.89;56.75;101673.81;5129289;27;1434;-65
2021/03/15 09:52:10;;;;;;;;;;;;;;;17.88;56.74;101669.44;5093557;28;1303;-65
2021/03/15 09:54:46;;;;;;;;;;;;;;;17.88;55.73;101664.16;5109703;28;1133;-65
2021/03/15 09:57:13;;;;;;;;;;;;;;;17.88;54.86;101658.88;5129637;28;1228;-65
2021/03/15 09:59:41;;;;;;;;;;;;;;;17.88;54.69;101661.53;5129393;28;1059;-65
2021/03/15 10:02:07;;;;;;;;;;;;;;;17.88;55.15;101669.44;5129502;28;1219;-64
2021/03/15 10:04:35;;;;;;;;;;;;;;;17.90;55.40;101666.75;5128293;28;1910;-63
2021/03/15 10:07:03;;;;;;;;;;;;;;;17.90;54.83;101672.03;5129731;28;1286;-64
2021/03/15 10:09:30;;;;;;;;;;;;;;;17.89;55.13;101662.38;5110670;28;1233;-64
2021/03/15 10:11:57;;;;;;;;;;;;;;;17.89;54.51;101662.38;5110594;28;1338;-64
2021/03/15 10:14:43;;;;;;;;;;;;;;;17.89;54.14;101657.97;5128902;28;1469;-64
2021/03/15 10:17:18;;;;;;;;;;;;;;;17.89;54.09;101665.03;5129309;28;1256;-64
2021/03/15 10:19:44;;;;;;;;;;;;;;;17.88;53.99;101674.72;5128955;28;1072;-64
2021/03/15 10:22:12;;;;;;;;;;;;;;;17.88;54.23;101673.84;5120126;27;1220;-64
2021/03/15 10:24:39;;;;;;;;;;;;;;;17.89;53.92;101679.06;5112671;28;1909;-64
2021/03/15 10:27:06;;;;;;;;;;;;;;;17.90;54.15;101672.84;5112663;28;1340;-65
2021/03/15 10:29:33;;;;;;;;;;;;;;;17.90;54.28;101667.59;5113042;28;1154;-64
2021/03/15 10:32:01;;;;;;;;;;;;;;;17.89;54.30;101665.88;5112968;28;1310;-65
2021/03/15 10:34:27;;;;;;;;;;;;;;;17.89;54.58;101660.63;5112903;28;1185;-64
2021/03/15 10:36:54;;;;;;;;;;;;;;;17.89;54.81;101662.38;5112802;28;1321;-64
2021/03/15 10:39:22;;;;;;;;;;;;;;;17.90;54.67;101657.03;5112772;28;1045;-65
2021/03/15 10:41:50;;;;;;;;;;;;;;;17.90;55.19;101651.78;5112762;28;1310;-65
2021/03/15 10:44:22;;;;;;;;;;;;;;;17.90;54.95;101657.03;5112673;28;1909;-64
2021/03/15 10:46:50;;;;;;;;;;;;;;;17.90;55.02;101661.47;5112495;28;1350;-64
2021/03/15 10:49:18;;;;;;;;;;;;;;;17.91;54.74;101658.78;5112340;28;1421;-64
2021/03/15 10:51:45;;;;;;;;;;;;;;;17.90;55.33;101657.03;5112068;28;1323;-64
2021/03/15 10:54:33;;;;;;;;;;;;;;;17.90;55.57;101657.03;5112137;28;925;-65
2021/03/15 10:57:10;;;;;;;;;;;;;;;17.90;55.63;101659.69;5111948;28;1653;-67
2021/03/15 10:59:36;;;;;;;;;;;;;;;17.88;57.38;101660.66;5110165;28;1046;-64
2021/03/15 11:02:03;;;;;;;;;;;;;;;18.02;58.46;101656.56;5090002;28;1366;-64
2021/03/15 11:04:34;;;;;;;;;;;;;;;18.01;59.02;101660.13;5110935;28;1910;-64
2021/03/15 11:07:16;;;;;;;;;;;;;;;17.96;57.22;101650.69;5130758;27;1267;-63
2021/03/15 11:09:51;;;;;;;;;;;;;;;17.95;56.69;101648.97;5119798;27;1075;-63
2021/03/15 11:12:29;;;;;;;;;;;;;;;17.95;57.58;101647.19;5132591;27;1268;-64
2021/03/15 11:15:14;;;;;;;;;;;;;;;17.95;58.15;101647.19;5132048;27;942;-63
2021/03/15 11:17:43;;;;;;;;;;;;;;;17.97;58.69;101636.56;5113730;27;1259;-64
2021/03/15 11:20:11;;;;;;;;;;;;;;;17.98;58.29;101627.75;5113801;27;1080;-63
2021/03/15 11:22:48;;;;;;;;;;;;;;;17.98;58.71;101627.75;5132363;27;1232;-63
2021/03/15 11:25:15;;;;;;;;;;;;;;;17.97;58.38;101621.63;5131397;27;1976;-63
2021/03/15 11:27:45;;;;;;;;;;;;;;;17.97;58.07;101626.91;5131700;27;1275;-63
2021/03/15 11:30:22;;;;;;;;;;;;;;;18.00;58.29;101618.88;5124368;27;1041;-62
2021/03/15 11:32:56;;;;;;;;;;;;;;;17.99;58.29;101614.50;5111011;28;762;-63
2021/03/15 11:35:22;;;;;;;;;;;;;;;18.01;58.71;101602.13;5111148;28;1294;-64
2021/03/15 11:37:49;;;;;;;;;;;;;;;17.99;58.02;101597.84;5092865;28;1336;-63
2021/03/15 11:40:25;;;;;;;;;;;;;;;18.01;58.20;101596.88;5116239;27;1223;-64
2021/03/15 11:42:53;;;;;;;;;;;;;;;18.07;56.70;101589.63;5130102;27;902;-64
2021/03/15 11:45:20;;;;;;;;;;;;;;;18.14;55.38;101575.28;5097978;27;1346;-66
2021/03/15 11:47:46;;;;;;;;;;;;;;;18.00;50.52;101568.78;5112616;27;954;-64
2021/03/15 11:50:13;;;;;;;;;;;;;;;17.94;49.02;101561.13;5114072;27;1360;-63
2021/03/15 11:52:41;;;;;;;;;;;;;;;17.91;48.16;101563.88;5108438;28;1216;-64
2021/03/15 11:55:09;;;;;;;;;;;;;;;17.86;46.78;101562.34;5110614;28;1228;-64
2021/03/15 11:57:36;;;;;;;;;;;;;;;17.85;46.61;101545.69;5092451;28;1379;-64
2021/03/15 12:00:07;;;;;;;;;;;;;;;17.76;44.72;101538.16;5113812;27;1109;-65
2021/03/15 12:02:34;;;;;;;;;;;;;;;17.72;44.03;101538.34;5131158;27;1172;-66
2021/03/15 12:05:02;;;;;;;;;;;;;;;17.71;43.34;101534.84;5112345;27;1910;-65
2021/03/15 12:07:28;;;;;;;;;;;;;;;17.70;43.38;101533.13;5131144;27;1207;-66
2021/03/15 12:09:55;;;;;;;;;;;;;;;17.68;43.71;101534.09;5112636;27;1061;-65
2021/03/15 12:12:23;;;;;;;;;;;;;;;17.72;43.20;101530.44;5131485;27;1282;-65
2021/03/15 12:14:50;;;;;;;;;;;;;;;17.71;43.28;101526.06;5131154;27;995;-64
2021/03/15 12:17:18;;;;;;;;;;;;;;;17.72;42.08;101525.16;5131066;27;1243;-64
2021/03/15 12:19:47;;;;;;;;;;;;;;;17.69;41.89;101520.03;5131115;27;1149;-64
2021/03/15 12:22:14;;;;;;;;;;;;;;;17.66;43.11;101517.50;5110376;27;1589;-65
2021/03/15 12:24:44;;;;;;;;;;;;;;;17.63;43.16;101512.38;5087536;28;1914;-65
2021/03/15 12:27:11;;;;;;;;;;;;;;;17.48;42.53;101505.88;5091018;28;1478;-64
2021/03/15 12:29:37;;;;;;;;;;;;;;;17.51;42.77;101500.47;5109013;28;1122;-64
2021/03/15 12:32:04;;;;;;;;;;;;;;;17.62;43.03;101489.56;5089897;28;1422;-65
2021/03/15 12:34:34;;;;;;;;;;;;;;;17.69;44.89;101488.41;5090367;28;1745;-65
2021/03/15 12:37:08;;;;;;;;;;;;;;;17.74;46.09;101484.66;5090255;28;1382;-65
2021/03/15 12:39:35;;;;;;;;;;;;;;;17.78;47.24;101480.94;5109028;28;1246;-65
2021/03/15 12:42:02;;;;;;;;;;;;;;;17.81;48.12;101470.28;5108566;28;1212;-66
2021/03/15 12:44:33;;;;;;;;;;;;;;;17.83;48.69;101468.47;5108109;28;1929;-66
2021/03/15 12:47:00;;;;;;;;;;;;;;;17.84;49.26;101464.88;5109375;27;1358;-66
2021/03/15 12:49:27;;;;;;;;;;;;;;;17.86;49.56;101455.16;5103038;27;1571;-65
2021/03/15 12:52:02;;;;;;;;;;;;;;;17.91;50.54;101450.53;5123425;27;1402;-66
2021/03/15 12:54:29;;;;;;;;;;;;;;;17.91;50.64;101452.31;5108654;28;1224;-66
2021/03/15 12:56:56;;;;;;;;;;;;;;;17.91;51.17;101447.91;5063806;28;1573;-64
2021/03/15 12:59:24;;;;;;;;;;;;;;;17.94;51.58;101444.28;5088148;28;1094;-65
2021/03/15 13:01:51;;;;;;;;;;;;;;;17.93;51.46;101440.78;5124924;27;1322;-65